createdAt,value
2023-04-05T00:00:22.945Z,9.20
2023-04-05T00:02:49.866Z,9.35
2023-04-05T00:05:29.371Z,9.88
2023-04-05T00:08:00.855Z,9.32
2023-04-05T00:10:32.570Z,10.15
2023-04-05T00:12:59.559Z,9.30
2023-04-05T00:15:27.920Z,8.38
2023-04-05T00:17:55.618Z,9.05
2023-04-05T00:20:22.428Z,9.38
2023-04-05T00:22:50.982Z,9.32
2023-04-05T00:25:18.479Z,7.13
2023-04-05T00:27:45.375Z,8.10
2023-04-05T00:30:12.379Z,7.78
2023-04-05T00:32:39.169Z,7.30
2023-04-05T00:35:06.511Z,8.07
2023-04-05T00:37:33.158Z,6.97
2023-04-05T00:39:59.948Z,5.57
2023-04-05T00:42:26.748Z,7.22
2023-04-05T00:44:53.382Z,7.28
2023-04-05T00:47:20.052Z,7.82
2023-04-05T00:49:46.768Z,7.30
2023-04-05T00:52:15.633Z,6.95
2023-04-05T00:54:43.580Z,7.22
2023-04-05T00:57:11.132Z,6.80
2023-04-05T00:59:37.974Z,7.07
2023-04-05T01:02:24.708Z,6.82
2023-04-05T01:05:01.068Z,7.07
2023-04-05T01:07:36.214Z,7.55
2023-04-05T01:10:05.588Z,6.03
2023-04-05T01:12:33.590Z,6.90
2023-04-05T01:15:01.210Z,7.13
2023-04-05T01:17:30.067Z,5.97
2023-04-05T01:20:03.949Z,7.35
2023-04-05T01:23:14.895Z,6.35
2023-04-05T01:26:06.863Z,6.32
2023-04-05T01:28:45.879Z,6.60
2023-04-05T01:31:26.952Z,6.63
2023-04-05T01:33:59.554Z,5.90
2023-04-05T01:36:41.876Z,6.10
2023-04-05T01:39:11.467Z,6.38
2023-04-05T01:41:40.428Z,5.72
2023-04-05T01:44:07.472Z,4.90
2023-04-05T01:46:34.346Z,5.47
2023-04-05T01:49:01.062Z,5.05
2023-04-05T01:51:28.042Z,5.40
2023-04-05T01:53:54.667Z,4.25
2023-04-05T01:56:21.370Z,4.28
2023-04-05T01:58:47.984Z,4.32
2023-04-05T02:01:15.162Z,4.20
2023-04-05T02:03:42.320Z,4.57
2023-04-05T02:06:09.024Z,4.60
2023-04-05T02:08:35.966Z,4.38
2023-04-05T02:11:02.636Z,4.00
2023-04-05T02:13:29.372Z,4.13
2023-04-05T02:15:56.077Z,4.10
2023-04-05T02:18:22.821Z,4.20
2023-04-05T02:20:52.536Z,4.82
2023-04-05T02:23:20.294Z,3.80
2023-04-05T02:25:47.173Z,4.18
2023-04-05T02:28:13.888Z,4.47
2023-04-05T02:30:41.198Z,4.18
2023-04-05T02:33:09.736Z,4.28
2023-04-05T02:35:36.691Z,3.40
2023-04-05T02:38:04.775Z,3.78
2023-04-05T02:40:32.104Z,4.63
2023-04-05T02:42:59.139Z,3.45
2023-04-05T02:45:27.903Z,3.15
2023-04-05T02:47:55.506Z,4.13
2023-04-05T02:50:23.483Z,3.45
2023-04-05T02:52:51.362Z,3.65
2023-04-05T02:55:18.391Z,3.30
2023-04-05T02:57:46.884Z,5.07
2023-04-05T03:00:14.441Z,4.45
2023-04-05T03:02:41.201Z,4.82
2023-04-05T03:05:09.329Z,4.63
2023-04-05T03:07:35.988Z,4.40
2023-04-05T03:10:03.151Z,3.65
2023-04-05T03:12:29.818Z,4.53
2023-04-05T03:14:56.448Z,4.30
2023-04-05T03:17:23.116Z,4.82
2023-04-05T03:19:49.743Z,4.75
2023-04-05T03:22:16.701Z,4.10
2023-04-05T03:24:43.552Z,4.28
2023-04-05T03:27:10.137Z,4.72
2023-04-05T03:29:36.708Z,3.65
2023-04-05T03:32:03.324Z,4.05
2023-04-05T03:34:29.993Z,4.15
2023-04-05T03:36:56.656Z,4.32
2023-04-05T03:39:23.402Z,4.07
2023-04-05T03:41:50.037Z,3.88
2023-04-05T03:44:16.622Z,4.60
2023-04-05T03:46:44.079Z,4.15
2023-04-05T03:49:10.950Z,4.35
2023-04-05T03:51:37.580Z,3.65
2023-04-05T03:54:04.372Z,4.22
2023-04-05T03:56:32.386Z,4.50
2023-04-05T03:58:59.270Z,4.50
2023-04-05T04:01:26.000Z,4.80
2023-04-05T04:03:52.648Z,5.30
2023-04-05T04:06:19.704Z,3.42
2023-04-05T04:08:46.528Z,3.20
2023-04-05T04:11:13.248Z,2.92
2023-04-05T04:13:39.809Z,3.05
2023-04-05T04:16:06.541Z,2.88
2023-04-05T04:18:33.366Z,2.80
2023-04-05T04:21:06.984Z,2.60
2023-04-05T04:23:38.734Z,2.70
2023-04-05T04:26:06.149Z,2.90
2023-04-05T04:28:34.915Z,3.30
2023-04-05T04:31:05.163Z,2.25
2023-04-05T04:33:31.948Z,2.85
2023-04-05T04:35:58.573Z,2.90
2023-04-05T04:38:26.193Z,2.65
2023-04-05T04:40:53.932Z,2.45
2023-04-05T04:43:27.592Z,1.67
2023-04-05T04:45:57.090Z,2.20
2023-04-05T04:48:23.754Z,2.00
2023-04-05T04:50:50.559Z,3.00
2023-04-05T04:53:24.111Z,2.30
2023-04-05T04:55:51.102Z,2.17
2023-04-05T04:58:18.144Z,2.38
2023-04-05T05:00:45.135Z,2.35
2023-04-05T05:03:12.909Z,7.07
2023-04-05T05:05:49.380Z,8.43
2023-04-05T05:08:18.833Z,9.15
2023-04-05T05:10:52.669Z,8.45
2023-04-05T05:13:19.791Z,7.07
2023-04-05T05:15:46.951Z,2.75
2023-04-05T05:18:13.780Z,1.77
2023-04-05T05:20:41.633Z,1.80
2023-04-05T05:23:08.694Z,1.80
2023-04-05T05:25:35.584Z,1.70
2023-04-05T05:28:02.311Z,1.48
2023-04-05T05:30:29.256Z,1.83
2023-04-05T05:32:57.914Z,1.98
2023-04-05T05:35:24.601Z,1.77
2023-04-05T05:37:51.237Z,2.00
2023-04-05T05:40:17.883Z,1.88
2023-04-05T05:42:44.519Z,1.48
2023-04-05T05:45:11.270Z,2.08
2023-04-05T05:47:38.143Z,1.33
2023-04-05T05:50:05.580Z,1.90
2023-04-05T05:52:32.306Z,1.35
2023-04-05T05:54:58.922Z,1.50
2023-04-05T05:57:25.866Z,1.50
2023-04-05T05:59:52.445Z,1.25
2023-04-05T06:02:19.355Z,1.25
2023-04-05T06:04:46.038Z,1.10
2023-04-05T06:07:12.737Z,1.75
2023-04-05T06:09:39.551Z,2.00
2023-04-05T06:12:06.622Z,1.10
2023-04-05T06:14:33.566Z,1.48
2023-04-05T06:17:00.253Z,1.00
2023-04-05T06:19:26.932Z,1.25
2023-04-05T06:21:55.023Z,1.35
2023-04-05T06:24:21.740Z,0.80
2023-04-05T06:26:48.403Z,1.30
2023-04-05T06:29:15.066Z,1.60
2023-04-05T06:31:42.816Z,1.38
2023-04-05T06:34:09.724Z,1.10
2023-04-05T06:36:36.377Z,1.25
2023-04-05T06:39:03.242Z,1.13
2023-04-05T06:41:29.860Z,1.60
2023-04-05T06:43:56.797Z,1.45
2023-04-05T06:46:24.411Z,1.00
2023-04-05T06:48:52.509Z,1.10
2023-04-05T06:51:19.590Z,1.10
2023-04-05T06:53:46.489Z,0.73
2023-04-05T06:56:13.333Z,1.42
2023-04-05T06:58:40.094Z,1.20
2023-04-05T07:01:07.655Z,0.90
2023-04-05T07:03:34.591Z,1.27
2023-04-05T07:06:01.556Z,2.70
2023-04-05T07:08:29.426Z,1.60
2023-04-05T07:10:56.210Z,1.90
2023-04-05T07:13:24.889Z,1.80
2023-04-05T07:15:53.157Z,1.88
2023-04-05T07:18:20.522Z,1.55
2023-04-05T07:20:49.230Z,0.90
2023-04-05T07:23:16.706Z,0.90
2023-04-05T07:25:43.993Z,1.02
2023-04-05T07:28:10.625Z,1.15
2023-04-05T07:30:37.849Z,1.17
2023-04-05T07:33:04.826Z,1.15
2023-04-05T07:35:31.788Z,1.48
2023-04-05T07:37:58.845Z,1.45
2023-04-05T07:40:25.854Z,1.80
2023-04-05T07:42:52.517Z,1.25
2023-04-05T07:45:19.502Z,0.93
2023-04-05T07:47:46.830Z,0.70
2023-04-05T07:50:15.406Z,1.70
2023-04-05T07:52:43.420Z,1.17
2023-04-05T07:55:10.455Z,1.10
2023-04-05T07:57:37.873Z,1.00
2023-04-05T08:00:11.071Z,0.80
2023-04-05T08:02:38.057Z,0.93
2023-04-05T08:05:05.606Z,0.80
2023-04-05T08:07:32.430Z,1.05
2023-04-05T08:10:00.467Z,1.17
2023-04-05T08:12:27.857Z,1.20
2023-04-05T08:14:54.830Z,0.85
2023-04-05T08:17:21.643Z,0.80
2023-04-05T08:19:49.450Z,0.75
2023-04-05T08:22:17.893Z,1.52
2023-04-05T08:24:45.066Z,1.55
2023-04-05T08:27:12.152Z,1.15
2023-04-05T08:29:38.941Z,1.25
2023-04-05T08:32:06.217Z,1.00
2023-04-05T08:34:33.085Z,1.20
2023-04-05T08:37:00.441Z,1.00
2023-04-05T08:39:27.218Z,1.10
2023-04-05T08:42:05.944Z,0.82
2023-04-05T08:44:36.684Z,1.25
2023-04-05T08:47:03.350Z,1.27
2023-04-05T08:49:30.147Z,1.38
2023-04-05T08:51:58.723Z,1.25
2023-04-05T08:54:25.577Z,1.38
2023-04-05T08:56:54.728Z,1.20
2023-04-05T08:59:22.631Z,1.38
2023-04-05T09:01:51.622Z,1.80
2023-04-05T09:04:28.305Z,1.55
2023-04-05T09:06:58.266Z,1.08
2023-04-05T09:09:25.934Z,1.90
2023-04-05T09:11:52.929Z,0.88
2023-04-05T09:14:21.491Z,1.20
2023-04-05T09:16:48.247Z,1.02
2023-04-05T09:19:15.044Z,1.70
2023-04-05T09:22:04.425Z,1.40
2023-04-05T09:24:37.228Z,1.35
2023-04-05T09:27:11.625Z,1.52
2023-04-05T09:29:40.322Z,1.50
2023-04-05T09:32:09.305Z,1.67
2023-04-05T09:34:37.670Z,1.80
2023-04-05T09:37:22.389Z,1.52
2023-04-05T09:39:52.099Z,1.88
2023-04-05T09:42:23.136Z,1.42
2023-04-05T09:44:57.614Z,1.60
2023-04-05T09:47:31.273Z,1.88
2023-04-05T09:50:14.145Z,2.10
2023-04-05T09:52:40.919Z,2.05
2023-04-05T09:55:08.340Z,2.00
2023-04-05T09:57:37.689Z,2.03
2023-04-05T10:00:06.886Z,2.28
2023-04-05T10:02:38.003Z,1.90
2023-04-05T10:05:12.548Z,1.92
2023-04-05T10:07:43.245Z,2.53
2023-04-05T10:10:13.933Z,2.53
2023-04-05T10:12:41.845Z,2.83
2023-04-05T10:15:14.172Z,3.08
2023-04-05T10:20:28.255Z,2.75
2023-04-05T10:23:10.282Z,3.13
2023-04-05T10:25:45.110Z,2.55
2023-04-05T10:28:18.586Z,3.72
2023-04-05T10:30:49.630Z,3.28
2023-04-05T10:33:31.981Z,3.25
2023-04-05T10:39:21.988Z,3.72
2023-04-05T10:41:54.355Z,3.58
2023-04-05T10:49:29.918Z,3.65
2023-04-05T10:51:57.065Z,2.80
2023-04-05T10:54:26.937Z,4.15
2023-04-05T10:56:53.942Z,3.17
2023-04-05T10:59:22.608Z,3.75
2023-04-05T11:01:49.913Z,3.53
2023-04-05T11:04:17.572Z,3.13
2023-04-05T11:06:48.221Z,3.60
2023-04-05T11:09:17.429Z,3.88
2023-04-05T11:11:46.537Z,3.47
2023-04-05T11:14:35.348Z,3.72
2023-04-05T11:17:03.426Z,3.33
2023-04-05T11:19:48.276Z,3.33
2023-04-05T11:22:26.631Z,3.53
2023-04-05T11:25:03.135Z,3.90
2023-04-05T11:27:32.321Z,2.92
2023-04-05T11:30:00.649Z,2.95
2023-04-05T11:32:46.460Z,3.25
2023-04-05T11:35:15.290Z,3.28
2023-04-05T11:38:00.044Z,3.60
2023-04-05T11:40:30.957Z,3.47
2023-04-05T11:43:07.874Z,2.90
2023-04-05T11:45:37.199Z,3.63
2023-04-05T11:48:08.563Z,3.42
2023-04-05T11:50:38.403Z,2.77
2023-04-05T11:53:16.300Z,3.50
2023-04-05T11:55:45.523Z,3.60
2023-04-05T11:58:21.627Z,2.75
2023-04-05T12:01:04.232Z,3.90
2023-04-05T12:03:31.592Z,3.55
2023-04-05T12:06:00.176Z,3.85
2023-04-05T12:08:50.207Z,7.18
2023-04-05T12:11:24.407Z,3.53
2023-04-05T12:13:54.692Z,3.92
2023-04-05T12:16:21.509Z,4.13
2023-04-05T12:18:54.474Z,3.90
2023-04-05T12:21:22.050Z,4.45
2023-04-05T12:23:50.380Z,3.97
2023-04-05T12:26:17.345Z,4.22
2023-04-05T12:28:58.385Z,4.32
2023-04-05T12:31:45.041Z,4.32
2023-04-05T12:34:14.673Z,4.18
2023-04-05T12:36:46.536Z,4.82
2023-04-05T12:39:13.259Z,5.05
2023-04-05T12:41:40.419Z,4.93
2023-04-05T12:44:16.950Z,4.07
2023-04-05T12:46:45.471Z,3.83
2023-04-05T12:49:17.216Z,3.88
2023-04-05T12:51:44.949Z,4.00
2023-04-05T12:54:22.781Z,3.97
2023-04-05T12:56:54.667Z,6.28
2023-04-05T12:59:22.708Z,4.13
2023-04-05T13:01:49.970Z,3.00
2023-04-05T13:04:17.155Z,3.53
2023-04-05T13:06:47.531Z,4.40
2023-04-05T13:09:15.121Z,3.47
2023-04-05T13:11:41.781Z,2.88
2023-04-05T13:14:09.100Z,3.75
2023-04-05T13:16:36.587Z,3.80
2023-04-05T13:19:03.315Z,3.97
2023-04-05T13:21:31.223Z,3.65
2023-04-05T13:23:58.074Z,3.50
2023-04-05T13:26:24.722Z,4.63
2023-04-05T13:28:51.533Z,4.05
2023-04-05T13:31:18.261Z,4.35
2023-04-05T13:33:45.033Z,4.00
2023-04-05T13:36:12.736Z,4.35
2023-04-05T13:38:39.903Z,5.03
2023-04-05T13:41:06.733Z,4.80
2023-04-05T13:43:33.578Z,4.40
2023-04-05T13:46:00.563Z,4.60
2023-04-05T13:48:27.338Z,4.55
2023-04-05T13:50:54.054Z,4.22
2023-04-05T13:53:20.712Z,4.22
2023-04-05T13:55:47.406Z,4.45
2023-04-05T13:58:14.600Z,5.00
2023-04-05T14:00:42.035Z,4.43
2023-04-05T14:03:09.310Z,5.35
2023-04-05T14:05:36.452Z,4.88
2023-04-05T14:08:03.250Z,4.05
2023-04-05T14:10:31.946Z,5.57
2023-04-05T14:12:58.721Z,4.50
2023-04-05T14:15:25.718Z,5.22
2023-04-05T14:17:52.570Z,4.85
2023-04-05T14:20:19.520Z,8.10
2023-04-05T14:22:46.273Z,5.88
2023-04-05T14:25:13.144Z,4.93
2023-04-05T14:27:42.497Z,5.93
2023-04-05T14:30:11.441Z,5.40
2023-04-05T14:32:38.519Z,5.07
2023-04-05T14:35:05.725Z,6.07
2023-04-05T14:37:32.312Z,5.03
2023-04-05T14:39:59.024Z,5.63
2023-04-05T14:42:34.127Z,6.82
2023-04-05T14:45:08.936Z,5.45
2023-04-05T14:47:35.859Z,4.82
2023-04-05T14:50:02.603Z,5.25
2023-04-05T14:52:30.008Z,5.13
2023-04-05T14:54:56.791Z,5.80
2023-04-05T14:57:23.449Z,4.05
2023-04-05T14:59:50.492Z,5.53
2023-04-05T15:02:17.388Z,4.93
2023-04-05T15:04:44.128Z,6.28
2023-04-05T15:07:11.057Z,6.18
2023-04-05T15:09:38.008Z,7.60
2023-04-05T15:12:04.795Z,7.07
2023-04-05T15:14:32.603Z,6.13
2023-04-05T15:16:59.601Z,7.25
2023-04-05T15:19:27.433Z,7.88
2023-04-05T15:21:54.216Z,7.90
2023-04-05T15:24:20.964Z,7.80
2023-04-05T15:26:47.694Z,7.15
2023-04-05T15:29:14.525Z,8.98
2023-04-05T15:31:41.933Z,7.00
2023-04-05T15:34:08.797Z,5.45
2023-04-05T15:36:36.272Z,8.02
2023-04-05T15:39:05.257Z,7.03
2023-04-05T15:41:34.255Z,6.20
2023-04-05T15:44:01.693Z,8.30
2023-04-05T15:46:29.558Z,6.90
2023-04-05T15:48:56.366Z,7.90
2023-04-05T15:51:23.324Z,6.65
2023-04-05T15:53:50.286Z,7.35
2023-04-05T15:56:17.325Z,7.22
2023-04-05T15:58:44.586Z,6.78
2023-04-05T16:01:11.394Z,6.80
2023-04-05T16:03:38.749Z,7.15
2023-04-05T16:06:05.637Z,6.72
2023-04-05T16:08:32.449Z,7.10
2023-04-05T16:10:59.219Z,6.45
2023-04-05T16:13:26.515Z,6.70
2023-04-05T16:15:53.428Z,6.15
2023-04-05T16:18:21.314Z,7.68
2023-04-05T16:20:48.571Z,6.72
2023-04-05T16:23:15.737Z,10.60
2023-04-05T16:25:42.552Z,8.63
2023-04-05T16:28:09.404Z,7.47
2023-04-05T16:30:36.874Z,7.82
2023-04-05T16:33:03.753Z,7.60
2023-04-05T16:35:31.331Z,7.88
2023-04-05T16:37:58.673Z,7.05
2023-04-05T16:40:25.589Z,8.05
2023-04-05T16:42:54.259Z,7.68
2023-04-05T16:45:21.128Z,7.78
2023-04-05T16:47:48.342Z,8.05
2023-04-05T16:50:15.527Z,8.93
2023-04-05T16:52:42.475Z,10.30
2023-04-05T16:55:09.997Z,18.98
2023-04-05T16:57:36.815Z,16.67
2023-04-05T17:00:05.257Z,11.77
2023-04-05T17:02:32.173Z,11.40
2023-04-05T17:04:59.090Z,9.38
2023-04-05T17:07:25.869Z,9.98
2023-04-05T17:09:52.597Z,8.27
2023-04-05T17:12:20.627Z,8.68
2023-04-05T17:14:47.380Z,8.77
2023-04-05T17:17:14.088Z,8.10
2023-04-05T17:19:40.904Z,8.65
2023-04-05T17:22:07.720Z,8.90
2023-04-05T17:24:36.396Z,9.25
2023-04-05T17:27:03.997Z,9.40
2023-04-05T17:29:30.700Z,9.13
2023-04-05T17:31:57.588Z,9.43
2023-04-05T17:34:24.626Z,8.75
2023-04-05T17:36:52.858Z,8.50
2023-04-05T17:39:19.792Z,8.98
2023-04-05T17:41:46.883Z,8.77
2023-04-05T17:44:15.763Z,8.35
2023-04-05T17:46:51.042Z,8.13
2023-04-05T17:49:21.055Z,8.90
2023-04-05T17:51:48.244Z,8.75
2023-04-05T17:54:15.638Z,8.02
2023-04-05T17:56:42.422Z,8.30
2023-04-05T17:59:09.575Z,8.57
2023-04-05T18:01:37.918Z,8.52
2023-04-05T18:04:05.859Z,9.00
2023-04-05T18:06:32.913Z,8.77
2023-04-05T18:08:59.837Z,8.45
2023-04-05T18:11:26.610Z,7.93
2023-04-05T18:13:53.319Z,8.82
2023-04-05T18:16:20.023Z,9.18
2023-04-05T18:18:46.731Z,8.70
2023-04-05T18:21:13.420Z,7.85
2023-04-05T18:23:40.297Z,8.50
2023-04-05T18:26:10.261Z,8.73
2023-04-05T18:28:37.107Z,9.93
2023-04-05T18:31:03.743Z,9.93
2023-04-05T18:33:30.497Z,9.10
2023-04-05T18:35:57.266Z,9.32
2023-04-05T18:38:24.248Z,8.45
2023-04-05T18:40:50.948Z,8.13
2023-04-05T18:43:17.806Z,7.65
2023-04-05T18:45:44.578Z,8.60
2023-04-05T18:48:11.652Z,9.10
2023-04-05T18:50:38.515Z,8.68
2023-04-05T18:53:06.920Z,8.82
2023-04-05T18:55:33.884Z,8.70
2023-04-05T18:58:00.964Z,8.63
2023-04-05T19:00:27.831Z,8.88
2023-04-05T19:02:54.862Z,8.00
2023-04-05T19:05:21.772Z,8.38
2023-04-05T19:07:48.513Z,9.10
2023-04-05T19:10:15.657Z,7.50
2023-04-05T19:12:43.559Z,8.40
2023-04-05T19:15:10.667Z,8.52
2023-04-05T19:17:37.692Z,8.95
2023-04-05T19:20:05.071Z,8.27
2023-04-05T19:22:31.753Z,8.30
2023-04-05T19:24:58.739Z,7.93
2023-04-05T19:27:32.941Z,7.32
2023-04-05T19:29:59.649Z,7.90
2023-04-05T19:32:26.784Z,8.35
2023-04-05T19:34:53.586Z,8.07
2023-04-05T19:37:20.850Z,8.50
2023-04-05T19:39:48.296Z,8.27
2023-04-05T19:42:15.485Z,8.90
2023-04-05T19:44:51.222Z,9.18
2023-04-05T19:47:21.334Z,10.38
2023-04-05T19:49:50.247Z,9.57
2023-04-05T19:52:40.932Z,9.20
2023-04-05T19:55:32.634Z,9.15
2023-04-05T19:58:01.068Z,13.55
2023-04-05T20:00:52.706Z,12.60
2023-04-05T20:03:31.572Z,9.57
2023-04-05T20:05:58.230Z,9.57
2023-04-05T20:08:25.268Z,9.07
2023-04-05T20:10:53.267Z,8.80
2023-04-05T20:13:20.217Z,9.43
2023-04-05T20:15:51.918Z,9.75
2023-04-05T20:18:27.026Z,10.85
2023-04-05T20:20:55.205Z,9.70
2023-04-05T20:23:23.178Z,11.50
2023-04-05T20:25:51.389Z,11.18
2023-04-05T20:28:41.662Z,9.43
2023-04-05T20:31:18.178Z,9.18
2023-04-05T20:33:46.973Z,9.45
2023-04-05T20:36:22.521Z,9.15
2023-04-05T20:38:50.395Z,8.32
2023-04-05T20:41:18.984Z,8.45
2023-04-05T20:43:45.968Z,8.38
2023-04-05T20:46:13.089Z,7.97
2023-04-05T20:48:39.741Z,8.18
2023-04-05T20:51:07.902Z,9.68
2023-04-05T20:53:36.572Z,12.18
2023-04-05T20:56:07.996Z,11.77
2023-04-05T20:58:40.070Z,9.85
2023-04-05T21:01:08.409Z,9.60
2023-04-05T21:03:37.619Z,9.25
2023-04-05T21:06:06.185Z,8.52
2023-04-05T21:08:33.140Z,9.20
2023-04-05T21:11:00.173Z,9.13
2023-04-05T21:13:26.910Z,8.40
2023-04-05T21:15:55.262Z,8.75
2023-04-05T21:18:25.851Z,9.43
2023-04-05T21:20:53.893Z,8.52
2023-04-05T21:23:27.174Z,8.50
2023-04-05T21:25:58.235Z,9.27
2023-04-05T21:28:25.773Z,8.40
2023-04-05T21:30:53.224Z,7.65
2023-04-05T21:33:20.939Z,8.40
2023-04-05T21:35:47.730Z,8.57
2023-04-05T21:38:15.790Z,8.57
2023-04-05T21:40:44.721Z,7.82
2023-04-05T21:43:12.654Z,9.57
2023-04-05T21:45:39.280Z,10.18
2023-04-05T21:48:06.376Z,8.15
2023-04-05T21:50:33.844Z,7.53
2023-04-05T21:53:00.675Z,7.53
2023-04-05T21:55:27.435Z,7.15
2023-04-05T21:57:54.219Z,6.38
2023-04-05T22:00:21.032Z,7.15
2023-04-05T22:02:47.687Z,6.60
2023-04-05T22:05:25.697Z,5.95
2023-04-05T22:08:01.361Z,6.55
2023-04-05T22:10:28.687Z,5.85
2023-04-05T22:12:55.649Z,6.03
2023-04-05T22:15:22.271Z,6.03
2023-04-05T22:17:49.014Z,5.53
2023-04-05T22:20:16.052Z,5.97
2023-04-05T22:22:42.809Z,5.53
2023-04-05T22:25:10.018Z,7.05
2023-04-05T22:27:36.837Z,7.47
2023-04-05T22:30:05.458Z,6.78
2023-04-05T22:32:32.268Z,6.93
2023-04-05T22:34:58.984Z,7.78
2023-04-05T22:37:26.590Z,7.68
2023-04-05T22:39:53.179Z,8.05
2023-04-05T22:42:19.954Z,8.07
2023-04-05T22:44:46.671Z,7.97
2023-04-05T22:47:13.268Z,9.25
2023-04-05T22:49:40.287Z,9.13
2023-04-05T22:52:07.051Z,10.60
2023-04-05T22:54:33.772Z,10.45
2023-04-05T22:57:01.271Z,10.27
2023-04-05T22:59:28.063Z,9.18
2023-04-05T23:01:54.796Z,10.77
2023-04-05T23:04:21.712Z,11.25
2023-04-05T23:06:48.509Z,9.75
2023-04-05T23:09:15.431Z,11.50
2023-04-05T23:11:42.943Z,9.80
2023-04-05T23:14:09.915Z,9.98
2023-04-05T23:16:36.786Z,10.10
2023-04-05T23:19:03.944Z,10.23
2023-04-05T23:21:31.284Z,10.80
2023-04-05T23:23:57.884Z,10.10
2023-04-05T23:26:24.705Z,9.50
2023-04-05T23:28:51.325Z,10.30
2023-04-05T23:31:18.025Z,9.75
2023-04-05T23:33:44.711Z,10.40
2023-04-05T23:36:11.599Z,9.65
2023-04-05T23:38:38.220Z,9.70
2023-04-05T23:41:05.135Z,9.27
2023-04-05T23:43:32.251Z,9.63
2023-04-05T23:45:59.015Z,8.85
2023-04-05T23:48:26.295Z,9.02
2023-04-05T23:50:53.103Z,8.00
2023-04-05T23:53:20.000Z,8.93
2023-04-05T23:55:46.839Z,8.00
2023-04-05T23:58:13.580Z,7.50
